Vesper, Wisconsin
Current Conditions -  °F | °C
As of 6:54 AM on Monday 22 Dec 2014 (Local Time) from KISW Reporting Station
Haze Haze  
Wind Chill: 28°   Ceiling: 1000
Heat Index: 34°   Visibility: 6mi
Dew Point: 29°   Wind: 7mph
Humidity: 82%   Direction: 140°SE
Pressure: 29.85"   Gusts: NA
Location:  44.48°N, 89.96°W
Report Text: KISW 221254Z AUTO 14006KT 6SM HZ OVC010 01/M02 A2985 RMK AO2 SNB37E47 CIG 009V014 SLP120 P0000 T00111017
Loading
Personal Weather Stations






























Interactive Weather Map New forecast layout! Learn more

10-Day Weather Forecast

Advertisements
Track Severe Weather on mobile